Time,TemperatureF,DewpointF,PressureIn,WindDirection,WindDirectionDegrees,WindSpeedMPH,WindSpeedGustMPH,Humidity,HourlyPrecipIn,Conditions,Clouds,dailyrainin,SoftwareType,DateUTC
2013-03-01 07:55:00,46.0,36.4,30.15,West,273,3.0,4.0,69,0.00,,,0.00,Wunderground v.1.15,2013-03-01 13:55:00,
2013-03-01 08:00:00,46.0,36.4,30.15,WNW,300,3.0,3.0,69,0.00,,,0.00,Wunderground v.1.15,2013-03-01 14:00:00,
2013-03-01 08:05:00,46.0,36.4,30.15,West,266,3.0,5.0,69,0.00,,,0.00,Wunderground v.1.15,2013-03-01 14:05:00,
2013-03-01 08:10:00,46.1,36.1,30.15,NW,304,4.0,4.0,68,0.00,,,0.00,Wunderground v.1.15,2013-03-01 14:10:00,
2013-03-01 08:15:00,46.3,36.7,30.16,WNW,291,4.0,4.0,69,0.00,,,0.00,Wunderground v.1.15,2013-03-01 14:15:00,
2013-03-01 08:20:00,46.7,37.1,30.16,WNW,286,3.0,5.0,69,0.00,,,0.00,Wunderground v.1.15,2013-03-01 14:20:00,
2013-03-01 08:25:00,46.7,36.3,30.16,West,262,4.0,5.0,67,0.00,,,0.00,Wunderground v.1.15,2013-03-01 14:25:00,
2013-03-01 08:30:00,46.7,36.3,30.16,West,276,4.0,4.0,67,0.00,,,0.00,Wunderground v.1.15,2013-03-01 14:30:00,
2013-03-01 08:35:00,47.1,37.1,30.15,West,276,3.0,4.0,68,0.00,,,0.00,Wunderground v.1.15,2013-03-01 14:35:00,
2013-03-01 08:40:00,47.5,37.5,30.16,West,264,3.0,3.0,68,0.00,,,0.00,Wunderground v.1.15,2013-03-01 14:40:00,
2013-03-01 08:45:00,47.4,36.6,30.16,WNW,302,4.0,4.0,66,0.00,,,0.00,Wunderground v.1.15,2013-03-01 14:45:00,
2013-03-01 08:50:00,47.7,37.3,30.16,WSW,246,3.0,3.0,67,0.00,,,0.00,Wunderground v.1.15,2013-03-01 14:50:00,
2013-03-01 08:55:00,48.0,37.2,30.16,NW,318,2.0,3.0,66,0.00,,,0.00,Wunderground v.1.15,2013-03-01 14:55:00,
2013-03-01 09:00:00,48.2,37.0,30.16,WNW,285,3.0,3.0,65,0.00,,,0.00,Wunderground v.1.15,2013-03-01 15:00:00,
2013-03-01 09:05:00,48.4,37.2,30.17,WNW,286,3.0,3.0,65,0.00,,,0.00,Wunderground v.1.15,2013-03-01 15:05:00,
2013-03-01 09:10:00,48.5,36.9,30.17,WNW,288,3.0,3.0,64,0.00,,,0.00,Wunderground v.1.15,2013-03-01 15:10:00,
2013-03-01 09:15:00,48.9,37.3,30.17,NW,316,4.0,5.0,64,0.00,,,0.00,Wunderground v.1.15,2013-03-01 15:15:00,
2013-03-01 09:20:00,49.6,37.5,30.16,NW,326,4.0,4.0,63,0.00,,,0.00,Wunderground v.1.15,2013-03-01 15:20:00,
2013-03-01 09:25:00,49.7,36.4,30.17,WNW,288,4.0,5.0,60,0.00,,,0.00,Wunderground v.1.15,2013-03-01 15:25:00,
2013-03-01 09:30:00,49.8,37.3,30.16,West,278,4.0,4.0,62,0.00,,,0.00,Wunderground v.1.15,2013-03-01 15:30:00,
2013-03-01 09:40:00,50.5,37.1,30.16,WNW,284,3.0,3.0,60,0.00,,,0.00,Wunderground v.1.15,2013-03-01 15:40:00,
2013-03-01 09:45:00,50.8,37.0,30.16,WNW,297,3.0,4.0,59,0.00,,,0.00,Wunderground v.1.15,2013-03-01 15:45:00,
2013-03-01 09:50:00,51.1,36.4,30.16,NW,314,3.0,3.0,57,0.00,,,0.00,Wunderground v.1.15,2013-03-01 15:50:00,
2013-03-01 10:40:00,54.0,35.8,30.15,WSW,257,5.0,5.0,50,0.00,,,0.00,Wunderground v.1.15,2013-03-01 16:40:00,
2013-03-01 10:45:00,54.5,35.2,30.15,WNW,287,4.0,6.0,48,0.00,,,0.00,Wunderground v.1.15,2013-03-01 16:45:00,
2013-03-01 10:50:00,54.7,36.4,30.15,WNW,291,4.0,8.0,50,0.00,,,0.00,Wunderground v.1.15,2013-03-01 16:50:00,
2013-03-01 10:55:00,55.1,36.3,30.15,NNW,340,4.0,8.0,49,0.00,,,0.00,Wunderground v.1.15,2013-03-01 16:55:00,
2013-03-01 11:00:00,55.3,36.5,30.15,NNW,348,5.0,5.0,49,0.00,,,0.00,Wunderground v.1.15,2013-03-01 17:00:00,
2013-03-01 11:05:00,55.4,36.0,30.15,WNW,294,6.0,10.0,48,0.00,,,0.00,Wunderground v.1.15,2013-03-01 17:05:00,
2013-03-01 11:09:00,55.5,35.6,30.15,WNW,290,6.0,6.0,47,0.00,,,0.00,Wunderground v.1.15,2013-03-01 17:09:00,
2013-03-01 11:14:00,55.9,36.5,30.15,WNW,284,5.0,6.0,48,0.00,,,0.00,Wunderground v.1.15,2013-03-01 17:14:00,
2013-03-01 11:19:00,55.9,36.5,30.15,WNW,288,5.0,7.0,48,0.00,,,0.00,Wunderground v.1.15,2013-03-01 17:19:00,
2013-03-01 11:25:00,55.8,36.4,30.14,SW,235,5.0,7.0,48,0.00,,,0.00,Wunderground v.1.15,2013-03-01 17:25:00,
2013-03-01 11:29:00,55.5,36.6,30.14,West,274,5.0,5.0,49,0.00,,,0.00,Wunderground v.1.15,2013-03-01 17:29:00,
2013-03-01 11:35:00,55.9,35.9,30.14,NW,316,5.0,12.0,47,0.00,,,0.00,Wunderground v.1.15,2013-03-01 17:35:00,
2013-03-01 11:40:00,55.9,35.4,30.14,WSW,246,6.0,6.0,46,0.00,,,0.00,Wunderground v.1.15,2013-03-01 17:40:00,
2013-03-01 11:45:00,55.3,34.3,30.14,WSW,248,6.0,6.0,45,0.00,,,0.00,Wunderground v.1.15,2013-03-01 17:45:00,
2013-03-01 11:50:00,55.6,35.7,30.14,WNW,302,6.0,6.0,47,0.00,,,0.00,Wunderground v.1.15,2013-03-01 17:50:00,
2013-03-01 11:55:00,56.0,35.5,30.13,WNW,294,6.0,6.0,46,0.00,,,0.00,Wunderground v.1.15,2013-03-01 17:55:00,
2013-03-01 12:00:00,55.8,35.9,30.13,WNW,294,6.0,6.0,47,0.00,,,0.00,Wunderground v.1.15,2013-03-01 18:00:00,
2013-03-01 12:05:00,56.0,34.9,30.13,WNW,284,7.0,8.0,45,0.00,,,0.00,Wunderground v.1.15,2013-03-01 18:05:00,
2013-03-01 12:10:00,55.9,34.8,30.13,WSW,245,7.0,8.0,45,0.00,,,0.00,Wunderground v.1.15,2013-03-01 18:10:00,
2013-03-01 12:15:00,56.1,36.1,30.12,NW,314,7.0,8.0,47,0.00,,,0.00,Wunderground v.1.15,2013-03-01 18:15:00,
2013-03-01 12:20:00,56.7,35.0,30.12,WNW,288,6.0,9.0,44,0.00,,,0.00,Wunderground v.1.15,2013-03-01 18:20:00,
2013-03-01 12:25:00,56.8,36.2,30.12,WNW,287,5.0,9.0,46,0.00,,,0.00,Wunderground v.1.15,2013-03-01 18:25:00,
2013-03-01 12:30:00,56.9,35.2,30.12,WNW,290,5.0,5.0,44,0.00,,,0.00,Wunderground v.1.15,2013-03-01 18:30:00,
2013-03-01 12:35:00,57.0,35.3,30.12,WNW,283,6.0,7.0,44,0.00,,,0.00,Wunderground v.1.15,2013-03-01 18:35:00,
2013-03-01 12:40:00,56.8,35.1,30.12,West,262,7.0,7.0,44,0.00,,,0.00,Wunderground v.1.15,2013-03-01 18:40:00,
2013-03-01 12:45:00,56.7,35.0,30.12,WNW,290,6.0,7.0,44,0.00,,,0.00,Wunderground v.1.15,2013-03-01 18:45:00,
2013-03-01 12:50:00,56.6,36.6,30.11,WNW,286,6.0,6.0,47,0.00,,,0.00,Wunderground v.1.15,2013-03-01 18:50:00,
2013-03-01 12:55:00,56.7,36.1,30.11,WNW,295,6.0,9.0,46,0.00,,,0.00,Wunderground v.1.15,2013-03-01 18:55:00,
2013-03-01 13:00:00,57.1,35.9,30.11,WNW,301,6.0,10.0,45,0.00,,,0.00,Wunderground v.1.15,2013-03-01 19:00:00,
2013-03-01 13:05:00,57.0,36.4,30.11,NW,319,6.0,10.0,46,0.00,,,0.00,Wunderground v.1.15,2013-03-01 19:05:00,
2013-03-01 13:10:00,56.9,36.3,30.10,WNW,298,6.0,8.0,46,0.00,,,0.00,Wunderground v.1.15,2013-03-01 19:10:00,
2013-03-01 13:15:00,57.1,34.8,30.10,WNW,288,6.0,8.0,43,0.00,,,0.00,Wunderground v.1.15,2013-03-01 19:15:00,
2013-03-01 13:20:00,57.3,37.2,30.10,NW,325,6.0,6.0,47,0.00,,,0.00,Wunderground v.1.15,2013-03-01 19:20:00,
2013-03-01 13:25:00,57.9,34.9,30.10,WNW,292,6.0,6.0,42,0.00,,,0.00,Wunderground v.1.15,2013-03-01 19:25:00,
2013-03-01 13:30:00,57.2,33.7,30.09,WNW,285,7.0,7.0,41,0.00,,,0.00,Wunderground v.1.15,2013-03-01 19:30:00,
2013-03-01 13:35:00,57.3,35.6,30.09,WNW,287,7.0,7.0,44,0.00,,,0.00,Wunderground v.1.15,2013-03-01 19:35:00,
2013-03-01 13:40:00,57.8,33.6,30.09,WNW,302,6.0,9.0,40,0.00,,,0.00,Wunderground v.1.15,2013-03-01 19:40:00,
2013-03-01 13:45:00,57.7,33.5,30.09,NNW,335,6.0,9.0,40,0.00,,,0.00,Wunderground v.1.15,2013-03-01 19:45:00,
2013-03-01 13:55:00,57.6,34.1,30.09,NW,308,7.0,11.0,41,0.00,,,0.00,Wunderground v.1.15,2013-03-01 19:55:00,
2013-03-01 14:00:00,57.6,34.1,30.08,NW,307,8.0,8.0,41,0.00,,,0.00,Wunderground v.1.15,2013-03-01 20:00:00,
2013-03-01 14:05:00,57.8,33.0,30.08,NNE,30,6.0,8.0,39,0.00,,,0.00,Wunderground v.1.15,2013-03-01 20:05:00,
2013-03-01 14:10:00,58.2,34.6,30.08,WNW,298,6.0,6.0,41,0.00,,,0.00,Wunderground v.1.15,2013-03-01 20:10:00,
2013-03-01 14:15:00,58.2,32.0,30.08,WNW,300,6.0,6.0,37,0.00,,,0.00,Wunderground v.1.15,2013-03-01 20:15:00,
2013-03-01 14:25:00,58.4,33.5,30.08,WSW,238,6.0,6.0,39,0.00,,,0.00,Wunderground v.1.15,2013-03-01 20:25:00,
2013-03-01 14:30:00,58.0,31.2,30.08,WNW,290,6.0,14.0,36,0.00,,,0.00,Wunderground v.1.15,2013-03-01 20:30:00,
2013-03-01 14:35:00,57.7,31.6,30.07,West,264,8.0,14.0,37,0.00,,,0.00,Wunderground v.1.15,2013-03-01 20:35:00,
2013-03-01 14:40:00,57.7,32.9,30.07,West,274,8.0,8.0,39,0.00,,,0.00,Wunderground v.1.15,2013-03-01 20:40:00,
2013-03-01 14:45:00,57.5,33.3,30.07,WNW,290,7.0,8.0,40,0.00,,,0.00,Wunderground v.1.15,2013-03-01 20:45:00,
2013-03-01 14:50:00,57.8,34.2,30.07,NW,316,6.0,6.0,41,0.00,,,0.00,Wunderground v.1.15,2013-03-01 20:50:00,
2013-03-01 14:55:00,57.8,34.2,30.07,WNW,295,6.0,6.0,41,0.00,,,0.00,Wunderground v.1.15,2013-03-01 20:55:00,
2013-03-01 15:00:00,57.6,33.4,30.07,WNW,286,6.0,6.0,40,0.00,,,0.00,Wunderground v.1.15,2013-03-01 21:00:00,
2013-03-01 15:05:00,57.8,34.2,30.07,WNW,300,6.0,7.0,41,0.00,,,0.00,Wunderground v.1.15,2013-03-01 21:05:00,
2013-03-01 15:10:00,57.8,33.0,30.07,WNW,286,7.0,7.0,39,0.00,,,0.00,Wunderground v.1.15,2013-03-01 21:10:00,
2013-03-01 15:15:00,57.8,33.6,30.07,NNW,338,7.0,7.0,40,0.00,,,0.00,Wunderground v.1.15,2013-03-01 21:15:00,
2013-03-01 15:20:00,57.8,32.3,30.07,WNW,293,7.0,12.0,38,0.00,,,0.00,Wunderground v.1.15,2013-03-01 21:20:00,
2013-03-01 15:25:00,57.8,33.6,30.07,WNW,295,7.0,12.0,40,0.00,,,0.00,Wunderground v.1.15,2013-03-01 21:25:00,
2013-03-01 15:30:00,57.9,31.8,30.07,NW,308,7.0,7.0,37,0.00,,,0.00,Wunderground v.1.15,2013-03-01 21:30:00,
2013-03-01 15:35:00,57.8,31.7,30.07,West,270,7.0,8.0,37,0.00,,,0.00,Wunderground v.1.15,2013-03-01 21:35:00,
2013-03-01 15:40:00,57.7,32.2,30.07,WNW,298,8.0,8.0,38,0.00,,,0.00,Wunderground v.1.15,2013-03-01 21:40:00,
2013-03-01 15:45:00,57.6,33.4,30.07,NNW,328,7.0,8.0,40,0.00,,,0.00,Wunderground v.1.15,2013-03-01 21:45:00,
2013-03-01 15:50:00,57.9,33.7,30.07,West,266,7.0,7.0,40,0.00,,,0.00,Wunderground v.1.15,2013-03-01 21:50:00,
2013-03-01 15:55:00,57.9,33.7,30.07,WNW,290,6.0,7.0,40,0.00,,,0.00,Wunderground v.1.15,2013-03-01 21:55:00,
2013-03-01 16:00:00,58.2,32.7,30.07,WNW,300,4.0,8.0,38,0.00,,,0.00,Wunderground v.1.15,2013-03-01 22:00:00,
2013-03-01 16:05:00,58.2,35.2,30.07,NNW,333,5.0,9.0,42,0.00,,,0.00,Wunderground v.1.15,2013-03-01 22:05:00,
2013-03-01 16:10:00,57.8,34.2,30.07,WSW,256,6.0,6.0,41,0.00,,,0.00,Wunderground v.1.15,2013-03-01 22:10:00,
2013-03-01 16:15:00,57.4,33.3,30.07,NW,312,7.0,7.0,40,0.00,,,0.00,Wunderground v.1.15,2013-03-01 22:15:00,
2013-03-01 16:20:00,57.3,33.8,30.07,WSW,256,7.0,7.0,41,0.00,,,0.00,Wunderground v.1.15,2013-03-01 22:20:00,
2013-03-01 16:25:00,57.3,33.2,30.07,WNW,282,6.0,7.0,40,0.00,,,0.00,Wunderground v.1.15,2013-03-01 22:25:00,
2013-03-01 16:30:00,57.3,33.2,30.07,WNW,285,5.0,5.0,40,0.00,,,0.00,Wunderground v.1.15,2013-03-01 22:30:00,
2013-03-01 16:35:00,57.2,33.1,30.07,West,267,5.0,5.0,40,0.00,,,0.00,Wunderground v.1.15,2013-03-01 22:35:00,
2013-03-01 16:40:00,57.1,33.0,30.07,WSW,238,5.0,5.0,40,0.00,,,0.00,Wunderground v.1.15,2013-03-01 22:40:00,
2013-03-01 16:45:00,57.0,33.5,30.07,WSW,240,5.0,5.0,41,0.00,,,0.00,Wunderground v.1.15,2013-03-01 22:45:00,
2013-03-01 16:50:00,56.8,33.3,30.08,NNE,15,5.0,7.0,41,0.00,,,0.00,Wunderground v.1.15,2013-03-01 22:50:00,
2013-03-01 16:55:00,56.6,33.2,30.07,West,276,6.0,7.0,41,0.00,,,0.00,Wunderground v.1.15,2013-03-01 22:55:00,
2013-03-01 17:05:00,56.3,33.5,30.07,NNW,338,5.0,6.0,42,0.00,,,0.00,Wunderground v.1.15,2013-03-01 23:05:00,
2013-03-01 17:10:00,56.1,32.7,30.07,WNW,290,5.0,8.0,41,0.00,,,0.00,Wunderground v.1.15,2013-03-01 23:10:00,
2013-03-01 17:15:00,55.9,32.5,30.07,WSW,250,6.0,8.0,41,0.00,,,0.00,Wunderground v.1.15,2013-03-01 23:15:00,
2013-03-01 17:20:00,55.9,32.5,30.08,West,280,6.0,6.0,41,0.00,,,0.00,Wunderground v.1.15,2013-03-01 23:20:00,
2013-03-01 17:25:00,55.7,32.9,30.08,WNW,298,5.0,8.0,42,0.00,,,0.00,Wunderground v.1.15,2013-03-01 23:25:00,
2013-03-01 17:30:00,55.4,33.3,30.08,WSW,242,5.0,5.0,43,0.00,,,0.00,Wunderground v.1.15,2013-03-01 23:30:00,
2013-03-01 17:35:00,55.2,33.6,30.08,West,281,4.0,5.0,44,0.00,,,0.00,Wunderground v.1.15,2013-03-01 23:35:00,
2013-03-01 17:40:00,55.1,33.6,30.08,WNW,302,5.0,5.0,44,0.00,,,0.00,Wunderground v.1.15,2013-03-01 23:40:00,
2013-03-01 17:45:00,54.8,33.8,30.08,West,280,5.0,5.0,45,0.00,,,0.00,Wunderground v.1.15,2013-03-01 23:45:00,
2013-03-01 17:50:00,54.7,33.2,30.08,West,272,4.0,4.0,44,0.00,,,0.00,Wunderground v.1.15,2013-03-01 23:50:00,
2013-03-01 17:55:00,54.5,33.6,30.08,West,276,4.0,4.0,45,0.00,,,0.00,Wunderground v.1.15,2013-03-01 23:55:00,
2013-03-01 18:00:00,54.1,33.8,30.09,West,262,3.0,3.0,46,0.00,,,0.00,Wunderground v.1.15,2013-03-02 00:00:00,
2013-03-01 18:05:00,53.9,34.1,30.09,West,270,2.0,3.0,47,0.00,,,0.00,Wunderground v.1.15,2013-03-02 00:05:00,
2013-03-01 18:15:00,53.5,34.3,30.09,West,271,2.0,2.0,48,0.00,,,0.00,Wunderground v.1.15,2013-03-02 00:15:00,
2013-03-01 18:20:00,53.2,34.5,30.10,WNW,298,1.0,2.0,49,0.00,,,0.00,Wunderground v.1.15,2013-03-02 00:20:00,
2013-03-01 18:25:00,53.0,35.3,30.10,West,274,2.0,2.0,51,0.00,,,0.00,Wunderground v.1.15,2013-03-02 00:25:00,
2013-03-01 18:30:00,52.7,34.6,30.10,West,269,2.0,2.0,50,0.00,,,0.00,Wunderground v.1.15,2013-03-02 00:30:00,
2013-03-01 18:35:00,52.7,34.1,30.10,WNW,290,2.0,2.0,49,0.00,,,0.00,Wunderground v.1.15,2013-03-02 00:35:00,
2013-03-01 18:40:00,52.7,35.1,30.10,WNW,291,2.0,2.0,51,0.00,,,0.00,Wunderground v.1.15,2013-03-02 00:40:00,
2013-03-01 18:45:00,52.5,35.4,30.11,WNW,285,2.0,2.0,52,0.00,,,0.00,Wunderground v.1.15,2013-03-02 00:45:00,
2013-03-01 18:50:00,52.4,34.8,30.11,WNW,300,2.0,2.0,51,0.00,,,0.00,Wunderground v.1.15,2013-03-02 00:50:00,
2013-03-01 18:55:00,52.5,34.9,30.11,WNW,295,3.0,3.0,51,0.00,,,0.00,Wunderground v.1.15,2013-03-02 00:55:00,
2013-03-01 19:00:00,52.3,35.2,30.11,WNW,285,2.0,3.0,52,0.00,,,0.00,Wunderground v.1.15,2013-03-02 01:00:00,
2013-03-01 19:05:00,52.2,35.1,30.11,West,259,2.0,3.0,52,0.00,,,0.00,Wunderground v.1.15,2013-03-02 01:05:00,
2013-03-01 19:10:00,52.1,35.0,30.11,WNW,295,2.0,6.0,52,0.00,,,0.00,Wunderground v.1.15,2013-03-02 01:10:00,
2013-03-01 19:20:00,52.2,34.6,30.12,NW,312,3.0,3.0,51,0.00,,,0.00,Wunderground v.1.15,2013-03-02 01:20:00,
2013-03-01 19:25:00,52.1,34.5,30.12,NW,309,3.0,3.0,51,0.00,,,0.00,Wunderground v.1.15,2013-03-02 01:25:00,
2013-03-01 19:30:00,52.0,34.4,30.12,NNW,333,3.0,3.0,51,0.00,,,0.00,Wunderground v.1.15,2013-03-02 01:30:00,
2013-03-01 19:35:00,51.8,34.2,30.13,NNE,27,2.0,3.0,51,0.00,,,0.00,Wunderground v.1.15,2013-03-02 01:35:00,
2013-03-01 19:40:00,51.7,34.1,30.13,WNW,283,2.0,2.0,51,0.00,,,0.00,Wunderground v.1.15,2013-03-02 01:40:00,
2013-03-01 19:45:00,51.5,34.4,30.13,WNW,291,2.0,2.0,52,0.00,,,0.00,Wunderground v.1.15,2013-03-02 01:45:00,
2013-03-01 19:50:00,51.4,34.3,30.13,North,360,2.0,2.0,52,0.00,,,0.00,Wunderground v.1.15,2013-03-02 01:50:00,
2013-03-01 19:55:00,51.3,33.8,30.13,NW,308,2.0,2.0,51,0.00,,,0.00,Wunderground v.1.15,2013-03-02 01:55:00,
2013-03-01 20:00:00,51.2,34.2,30.13,NW,308,2.0,2.0,52,0.00,,,0.00,Wunderground v.1.15,2013-03-02 02:00:00,
2013-03-01 20:05:00,50.9,34.4,30.13,NW,326,1.0,2.0,53,0.00,,,0.00,Wunderground v.1.15,2013-03-02 02:05:00,
2013-03-01 20:10:00,50.7,33.2,30.13,NNW,336,1.0,2.0,51,0.00,,,0.00,Wunderground v.1.15,2013-03-02 02:10:00,
2013-03-01 20:15:00,50.5,33.0,30.14,NNW,330,1.0,2.0,51,0.00,,,0.00,Wunderground v.1.15,2013-03-02 02:15:00,
2013-03-01 20:25:00,50.6,32.1,30.14,WNW,302,2.0,2.0,49,0.00,,,0.00,Wunderground v.1.15,2013-03-02 02:25:00,
2013-03-01 20:30:00,50.5,32.0,30.14,WNW,291,2.0,2.0,49,0.00,,,0.00,Wunderground v.1.15,2013-03-02 02:30:00,
2013-03-01 20:35:00,50.5,31.5,30.14,NW,326,2.0,2.0,48,0.00,,,0.00,Wunderground v.1.15,2013-03-02 02:35:00,
2013-03-01 20:40:00,50.4,31.9,30.14,NW,311,2.0,2.0,49,0.00,,,0.00,Wunderground v.1.15,2013-03-02 02:40:00,
2013-03-01 20:45:00,50.3,31.3,30.15,NW,322,1.0,2.0,48,0.00,,,0.00,Wunderground v.1.15,2013-03-02 02:45:00,
2013-03-01 20:55:00,50.0,31.1,30.15,WNW,294,1.0,2.0,48,0.00,,,0.00,Wunderground v.1.15,2013-03-02 02:55:00,
2013-03-01 21:00:00,49.8,31.4,30.15,NW,324,1.0,2.0,49,0.00,,,0.00,Wunderground v.1.15,2013-03-02 03:00:00,
2013-03-01 21:05:00,49.5,31.6,30.15,North,1,1.0,2.0,50,0.00,,,0.00,Wunderground v.1.15,2013-03-02 03:05:00,
2013-03-01 21:10:00,49.1,31.7,30.15,NNW,338,1.0,2.0,51,0.00,,,0.00,Wunderground v.1.15,2013-03-02 03:10:00,
2013-03-01 21:15:00,48.7,32.3,30.15,North,11,1.0,2.0,53,0.00,,,0.00,Wunderground v.1.15,2013-03-02 03:15:00,
2013-03-01 21:20:00,48.7,32.3,30.15,North,352,1.0,1.0,53,0.00,,,0.00,Wunderground v.1.15,2013-03-02 03:20:00,
2013-03-01 21:25:00,48.4,33.0,30.16,NW,314,1.0,3.0,55,0.00,,,0.00,Wunderground v.1.15,2013-03-02 03:25:00,
2013-03-01 21:35:00,48.0,33.5,30.16,NNW,328,1.0,2.0,57,0.00,,,0.00,Wunderground v.1.15,2013-03-02 03:35:00,
2013-03-01 21:40:00,47.6,34.0,30.16,NNW,328,0.0,2.0,59,0.00,,,0.00,Wunderground v.1.15,2013-03-02 03:40:00,
2013-03-01 21:45:00,46.9,34.1,30.16,NNE,15,0.0,2.0,61,0.00,,,0.00,Wunderground v.1.15,2013-03-02 03:45:00,
2013-03-01 21:50:00,46.7,34.0,30.17,NW,319,1.0,4.0,61,0.00,,,0.00,Wunderground v.1.15,2013-03-02 03:50:00,
2013-03-01 21:55:00,46.7,34.4,30.17,NNW,335,1.0,4.0,62,0.00,,,0.00,Wunderground v.1.15,2013-03-02 03:55:00,
2013-03-01 22:05:00,46.3,34.4,30.17,NNE,22,1.0,2.0,63,0.00,,,0.00,Wunderground v.1.15,2013-03-02 04:05:00,
2013-03-01 22:10:00,46.1,34.2,30.17,NE,41,1.0,1.0,63,0.00,,,0.00,Wunderground v.1.15,2013-03-02 04:10:00,
2013-03-01 22:15:00,46.1,34.6,30.17,North,354,1.0,2.0,64,0.00,,,0.00,Wunderground v.1.15,2013-03-02 04:15:00,
2013-03-01 22:20:00,45.9,34.8,30.17,North,352,1.0,2.0,65,0.00,,,0.00,Wunderground v.1.15,2013-03-02 04:20:00,
2013-03-01 22:25:00,45.8,35.1,30.17,NNE,18,0.0,2.0,66,0.00,,,0.00,Wunderground v.1.15,2013-03-02 04:25:00,
2013-03-01 22:30:00,45.7,35.4,30.17,North,8,0.0,2.0,67,0.00,,,0.00,Wunderground v.1.15,2013-03-02 04:30:00,
2013-03-01 22:40:00,45.3,35.0,30.17,North,350,1.0,2.0,67,0.00,,,0.00,Wunderground v.1.15,2013-03-02 04:40:00,
2013-03-01 22:45:00,45.2,34.9,30.17,North,9,1.0,2.0,67,0.00,,,0.00,Wunderground v.1.15,2013-03-02 04:45:00,
2013-03-01 22:50:00,44.9,35.0,30.17,North,9,0.0,2.0,68,0.00,,,0.00,Wunderground v.1.15,2013-03-02 04:50:00,
2013-03-01 22:55:00,44.6,34.7,30.17,North,352,1.0,2.0,68,0.00,,,0.00,Wunderground v.1.15,2013-03-02 04:55:00,
2013-03-01 23:00:00,44.4,34.5,30.17,NNE,15,1.0,1.0,68,0.00,,,0.00,Wunderground v.1.15,2013-03-02 05:00:00,
2013-03-01 23:05:00,44.0,34.1,30.17,NNE,15,0.0,2.0,68,0.00,,,0.00,Wunderground v.1.15,2013-03-02 05:05:00,
2013-03-01 23:10:00,43.6,34.5,30.17,NNE,15,0.0,2.0,70,0.00,,,0.00,Wunderground v.1.15,2013-03-02 05:10:00,
2013-03-01 23:15:00,43.2,34.4,30.17,NNE,15,0.0,2.0,71,0.00,,,0.00,Wunderground v.1.15,2013-03-02 05:15:00,
2013-03-01 23:20:00,42.8,34.4,30.17,NNE,15,0.0,2.0,72,0.00,,,0.00,Wunderground v.1.15,2013-03-02 05:20:00,
2013-03-01 23:25:00,42.4,34.4,30.17,NNE,15,0.0,2.0,73,0.00,,,0.00,Wunderground v.1.15,2013-03-02 05:25:00,
2013-03-01 23:30:00,42.0,34.0,30.17,NNE,15,0.0,2.0,73,0.00,,,0.00,Wunderground v.1.15,2013-03-02 05:30:00,
2013-03-01 23:35:00,41.9,34.2,30.17,NNE,15,0.0,2.0,74,0.00,,,0.00,Wunderground v.1.15,2013-03-02 05:35:00,
2013-03-01 23:40:00,41.7,34.0,30.17,NNE,15,0.0,2.0,74,0.00,,,0.00,Wunderground v.1.15,2013-03-02 05:40:00,
2013-03-01 23:45:00,41.5,33.8,30.17,NNE,15,0.0,2.0,74,0.00,,,0.00,Wunderground v.1.15,2013-03-02 05:45:00,
2013-03-01 23:50:00,41.0,34.0,30.17,NNE,15,0.0,2.0,76,0.00,,,0.00,Wunderground v.1.15,2013-03-02 05:50:00,
2013-03-01 23:55:00,40.6,34.0,30.17,NNE,15,0.0,2.0,77,0.00,,,0.00,Wunderground v.1.15,2013-03-02 05:55:00,